createdAt,value
2022-11-18T00:01:07.583Z,-2.91
2022-11-18T00:03:34.421Z,-2.91
2022-11-18T00:06:01.081Z,-2.91
2022-11-18T00:08:27.896Z,-2.92
2022-11-18T00:10:54.503Z,-2.92
2022-11-18T00:13:39.797Z,-2.91
2022-11-18T00:16:08.344Z,-2.91
2022-11-18T00:18:35.208Z,-2.92
2022-11-18T00:21:02.414Z,-2.91
2022-11-18T00:23:29.536Z,-2.88
2022-11-18T00:25:56.462Z,-2.89
2022-11-18T00:28:23.388Z,-2.88
2022-11-18T00:30:50.146Z,-2.86
2022-11-18T00:33:16.846Z,-2.82
2022-11-18T00:35:43.524Z,-2.80
2022-11-18T00:38:10.257Z,-2.79
2022-11-18T00:40:36.937Z,-2.81
2022-11-18T00:43:03.649Z,-2.79
2022-11-18T00:45:30.426Z,-2.77
2022-11-18T00:47:57.162Z,-2.75
2022-11-18T00:50:24.788Z,-2.73
2022-11-18T00:52:51.492Z,-2.74
2022-11-18T00:55:18.274Z,-2.74
2022-11-18T00:57:45.025Z,-2.76
2022-11-18T01:00:12.045Z,-2.78
2022-11-18T01:02:38.820Z,-2.81
2022-11-18T01:05:12.830Z,-2.83
2022-11-18T01:07:39.679Z,-2.85
2022-11-18T01:10:06.467Z,-2.85
2022-11-18T01:12:54.454Z,-2.81
2022-11-18T01:15:21.412Z,-2.79
2022-11-18T01:17:48.126Z,-2.78
2022-11-18T01:20:15.842Z,-2.81
2022-11-18T01:22:42.571Z,-2.83
2022-11-18T01:25:09.476Z,-2.84
2022-11-18T01:27:36.159Z,-2.85
2022-11-18T01:30:03.070Z,-2.87
2022-11-18T01:32:29.722Z,-2.90
2022-11-18T01:34:56.434Z,-2.91
2022-11-18T01:37:23.228Z,-2.91
2022-11-18T01:39:49.992Z,-2.89
2022-11-18T01:42:16.985Z,-2.88
2022-11-18T01:45:05.295Z,-2.89
2022-11-18T01:47:35.829Z,-2.89
2022-11-18T01:50:02.640Z,-2.90
2022-11-18T01:52:29.325Z,-2.89
2022-11-18T01:54:58.289Z,-2.88
2022-11-18T01:57:27.623Z,-2.87
2022-11-18T01:59:55.304Z,-2.86
2022-11-18T02:02:22.855Z,-2.86
2022-11-18T02:05:54.499Z,-2.83
2022-11-18T02:08:21.248Z,-2.84
2022-11-18T02:10:48.190Z,-2.83
2022-11-18T02:13:14.965Z,-2.83
2022-11-18T02:15:44.702Z,-2.85
2022-11-18T02:18:23.864Z,-2.86
2022-11-18T02:20:51.458Z,-2.88
2022-11-18T02:23:42.645Z,-2.89
2022-11-18T02:26:21.713Z,-2.91
2022-11-18T02:28:57.659Z,-2.91
2022-11-18T02:31:27.999Z,-2.90
2022-11-18T02:33:58.987Z,-2.90
2022-11-18T02:36:40.003Z,-2.92
2022-11-18T02:39:13.655Z,-2.92
2022-11-18T02:41:40.920Z,-2.92
2022-11-18T02:44:11.046Z,-2.95
2022-11-18T02:46:38.795Z,-2.90
2022-11-18T02:49:10.861Z,-2.89
2022-11-18T02:51:37.629Z,-2.90
2022-11-18T02:54:06.734Z,-2.91
2022-11-18T02:56:34.250Z,-2.90
2022-11-18T02:59:01.141Z,-2.89
2022-11-18T03:01:29.026Z,-2.88
2022-11-18T03:03:56.190Z,-2.86
2022-11-18T03:06:33.045Z,-2.86
2022-11-18T03:09:09.117Z,-2.85
2022-11-18T03:12:14.586Z,-2.84
2022-11-18T03:14:47.324Z,-2.82
2022-11-18T03:17:20.483Z,-2.82
2022-11-18T03:19:56.086Z,-2.84
2022-11-18T03:22:52.275Z,-2.85
2022-11-18T03:25:19.049Z,-2.85
2022-11-18T03:27:57.044Z,-2.84
2022-11-18T03:30:23.861Z,-2.81
2022-11-18T03:32:56.440Z,-2.78
2022-11-18T03:35:24.136Z,-2.75
2022-11-18T03:37:52.231Z,-2.72
2022-11-18T03:40:20.046Z,-2.69
2022-11-18T03:42:48.221Z,-2.66
2022-11-18T03:45:17.079Z,-2.63
2022-11-18T03:47:45.181Z,-2.63
2022-11-18T03:50:12.613Z,-2.62
2022-11-18T03:52:39.293Z,-2.60
2022-11-18T03:55:09.079Z,-2.58
2022-11-18T03:57:44.919Z,-2.56
2022-11-18T04:00:12.977Z,-2.56
2022-11-18T04:02:39.657Z,-2.54
2022-11-18T04:05:06.885Z,-2.52
2022-11-18T04:07:38.443Z,-2.47
2022-11-18T04:10:21.265Z,-2.43
2022-11-18T04:12:53.351Z,-2.37
2022-11-18T04:15:20.504Z,-2.32
2022-11-18T04:17:47.134Z,-2.29
2022-11-18T04:20:17.436Z,-2.27
2022-11-18T04:22:44.327Z,-2.24
2022-11-18T04:25:10.925Z,-2.19
2022-11-18T04:27:37.632Z,-2.16
2022-11-18T04:30:05.035Z,-2.12
2022-11-18T04:32:31.674Z,-2.09
2022-11-18T04:34:58.362Z,-2.08
2022-11-18T04:37:25.094Z,-2.05
2022-11-18T04:39:51.688Z,-2.04
2022-11-18T04:42:18.396Z,-2.07
2022-11-18T04:44:44.996Z,-2.03
2022-11-18T04:47:11.677Z,-2.04
2022-11-18T04:49:38.308Z,-2.04
2022-11-18T04:52:05.107Z,-2.03
2022-11-18T04:54:31.743Z,-2.03
2022-11-18T04:56:58.399Z,-2.02
2022-11-18T04:59:25.724Z,-2.03
2022-11-18T05:01:52.413Z,-2.02
2022-11-18T05:04:20.046Z,-2.01
2022-11-18T05:06:46.678Z,-1.99
2022-11-18T05:09:13.390Z,-1.98
2022-11-18T05:11:58.895Z,-2.00
2022-11-18T05:14:28.806Z,-2.00
2022-11-18T05:16:55.760Z,-2.00
2022-11-18T05:19:22.405Z,-2.01
2022-11-18T05:21:49.035Z,-2.01
2022-11-18T05:24:15.708Z,-2.00
2022-11-18T05:26:42.351Z,-2.00
2022-11-18T05:29:08.980Z,-1.99
2022-11-18T05:31:35.673Z,-1.97
2022-11-18T05:34:02.416Z,-1.93
2022-11-18T05:36:29.060Z,-1.90
2022-11-18T05:38:58.160Z,-1.86
2022-11-18T05:41:43.601Z,-1.83
2022-11-18T05:44:10.256Z,-1.78
2022-11-18T05:46:36.977Z,-1.74
2022-11-18T05:49:03.631Z,-1.73
2022-11-18T05:51:30.266Z,-1.74
2022-11-18T05:53:57.092Z,-1.74
2022-11-18T05:56:25.374Z,-1.74
2022-11-18T05:58:52.057Z,-1.73
2022-11-18T06:01:20.589Z,-1.72
2022-11-18T06:03:47.264Z,-1.75
2022-11-18T06:06:13.962Z,-1.78
2022-11-18T06:08:43.427Z,-1.82
2022-11-18T06:11:10.972Z,-1.88
2022-11-18T06:13:39.820Z,-1.91
2022-11-18T06:16:06.652Z,-1.92
2022-11-18T06:18:33.373Z,-1.93
2022-11-18T06:21:01.307Z,-1.96
2022-11-18T06:23:28.642Z,-1.98
2022-11-18T06:25:55.271Z,-2.01
2022-11-18T06:28:21.945Z,-2.04
2022-11-18T06:30:48.593Z,-2.08
2022-11-18T06:33:15.238Z,-2.13
2022-11-18T06:35:42.541Z,-2.18
2022-11-18T06:38:09.199Z,-2.23
2022-11-18T06:40:37.230Z,-2.25
2022-11-18T06:43:25.697Z,-2.25
2022-11-18T06:46:11.013Z,-2.23
2022-11-18T06:48:37.637Z,-2.20
2022-11-18T06:51:07.740Z,-2.15
2022-11-18T06:53:53.056Z,-2.11
2022-11-18T06:56:20.347Z,-2.09
2022-11-18T06:58:47.128Z,-2.08
2022-11-18T07:01:24.785Z,-2.07
2022-11-18T07:03:51.581Z,-2.05
2022-11-18T07:06:19.326Z,-2.06
2022-11-18T07:08:46.005Z,-2.04
2022-11-18T07:11:13.476Z,-2.02
2022-11-18T07:13:43.578Z,-2.01
2022-11-18T07:16:14.894Z,-2.02
2022-11-18T07:18:42.245Z,-2.03
2022-11-18T07:21:10.142Z,-2.04
2022-11-18T07:23:36.778Z,-2.03
2022-11-18T07:26:03.453Z,-2.02
2022-11-18T07:28:30.397Z,-2.00
2022-11-18T07:31:06.330Z,-1.99
2022-11-18T07:33:33.093Z,-1.96
2022-11-18T07:36:03.337Z,-1.95
2022-11-18T07:38:29.995Z,-1.95
2022-11-18T07:41:02.729Z,-1.94
2022-11-18T07:43:29.337Z,-2.01
2022-11-18T07:45:56.042Z,-1.95
2022-11-18T07:48:22.733Z,-1.93
2022-11-18T07:50:49.396Z,-1.93
2022-11-18T07:53:16.038Z,-1.89
2022-11-18T07:55:42.682Z,-1.87
2022-11-18T07:58:09.365Z,-1.86
2022-11-18T08:00:36.008Z,-1.83
2022-11-18T08:03:02.665Z,-1.85
2022-11-18T08:05:29.353Z,-1.78
2022-11-18T08:07:56.023Z,-1.74
2022-11-18T08:10:22.723Z,-1.73
2022-11-18T08:12:49.426Z,-1.73
2022-11-18T08:15:16.087Z,-1.72
2022-11-18T08:17:42.829Z,-1.71
2022-11-18T08:20:09.803Z,-1.72
2022-11-18T08:22:36.464Z,-1.74
2022-11-18T08:25:03.320Z,-1.75
2022-11-18T08:27:29.956Z,-1.73
2022-11-18T08:29:56.585Z,-1.72
2022-11-18T08:32:23.436Z,-1.71
2022-11-18T08:34:50.543Z,-1.70
2022-11-18T08:37:17.236Z,-1.69
2022-11-18T08:39:43.937Z,-1.68
2022-11-18T08:42:10.768Z,-1.67
2022-11-18T08:44:37.389Z,-1.65
2022-11-18T08:47:04.140Z,-1.62
2022-11-18T08:49:32.494Z,-1.59
2022-11-18T08:51:59.355Z,-1.57
2022-11-18T08:54:26.054Z,-1.59
2022-11-18T08:56:52.761Z,-1.60
2022-11-18T08:59:19.578Z,-1.62
2022-11-18T09:01:46.630Z,-1.63
2022-11-18T09:04:13.354Z,-1.66
2022-11-18T09:06:40.404Z,-1.68
2022-11-18T09:09:07.871Z,-1.70
2022-11-18T09:11:34.580Z,-1.67
2022-11-18T09:14:53.378Z,-1.66
2022-11-18T09:16:47.912Z,-1.64
2022-11-18T09:22:01.738Z,-1.63
2022-11-18T09:24:28.463Z,-1.63
2022-11-18T09:26:55.115Z,-1.64
2022-11-18T09:29:25.983Z,-1.65
2022-11-18T09:31:52.939Z,-1.67
2022-11-18T09:34:19.909Z,-1.64
2022-11-18T09:36:46.697Z,-1.62
2022-11-18T09:39:13.372Z,-1.59
2022-11-18T09:41:45.230Z,-1.58
2022-11-18T09:44:21.228Z,-1.60
2022-11-18T09:46:47.947Z,-1.52
2022-11-18T09:49:28.832Z,-1.49
2022-11-18T09:51:55.462Z,-1.50
2022-11-18T09:54:23.157Z,-1.51
2022-11-18T09:56:50.423Z,-1.49
2022-11-18T09:59:17.820Z,-1.51
2022-11-18T10:01:44.564Z,-1.53
2022-11-18T10:04:15.788Z,-1.58
2022-11-18T10:06:42.627Z,-1.63
2022-11-18T10:09:20.017Z,-1.66
2022-11-18T10:12:05.140Z,-1.63
2022-11-18T10:14:51.572Z,-1.60
2022-11-18T10:17:33.735Z,-1.57
2022-11-18T10:20:12.551Z,-1.54
2022-11-18T10:22:43.159Z,-1.53
2022-11-18T10:25:13.620Z,-1.52
2022-11-18T10:27:40.967Z,-1.54
2022-11-18T10:30:20.627Z,-1.55
2022-11-18T10:32:53.018Z,-1.55
2022-11-18T10:35:23.654Z,-1.54
2022-11-18T10:38:07.460Z,-1.51
2022-11-18T10:40:34.827Z,-1.49
2022-11-18T10:43:01.500Z,-1.49
2022-11-18T10:45:31.957Z,-1.50
2022-11-18T10:48:14.174Z,-1.50
2022-11-18T10:50:41.599Z,-1.52
2022-11-18T10:53:27.037Z,-1.54
2022-11-18T10:56:00.438Z,-1.56
2022-11-18T10:58:27.376Z,-1.56
2022-11-18T11:00:54.072Z,-1.54
2022-11-18T11:03:20.670Z,-1.53
2022-11-18T11:05:47.295Z,-1.53
2022-11-18T11:08:36.235Z,-1.52
2022-11-18T11:11:04.472Z,-1.53
2022-11-18T11:13:31.195Z,-1.52
2022-11-18T11:15:58.861Z,-1.52
2022-11-18T11:18:42.307Z,-1.49
2022-11-18T11:21:16.001Z,-1.46
2022-11-18T11:23:42.766Z,-1.44
2022-11-18T11:29:12.237Z,-1.38
2022-11-18T11:31:38.879Z,-1.37
2022-11-18T11:34:11.768Z,-1.34
2022-11-18T11:36:50.805Z,-1.32
2022-11-18T11:39:26.760Z,-1.37
2022-11-18T11:41:56.792Z,-1.25
2022-11-18T11:44:32.295Z,-1.25
2022-11-18T11:47:32.478Z,-1.18
2022-11-18T11:50:05.382Z,-1.14
2022-11-18T11:52:33.923Z,-1.11
2022-11-18T11:55:04.658Z,-1.14
2022-11-18T11:58:00.822Z,-1.08
2022-11-18T12:00:28.907Z,-1.05
2022-11-18T12:03:18.190Z,-1.01
2022-11-18T12:05:44.885Z,-0.99
2022-11-18T12:08:21.279Z,-1.00
2022-11-18T12:10:52.827Z,-1.00
2022-11-18T12:13:38.230Z,-1.01
2022-11-18T12:16:08.211Z,-1.02
2022-11-18T12:19:07.325Z,-1.04
2022-11-18T12:21:46.086Z,-1.08
2022-11-18T12:24:25.889Z,-1.14
2022-11-18T12:26:52.988Z,-1.21
2022-11-18T12:29:19.955Z,-1.25
2022-11-18T12:31:47.143Z,-1.29
2022-11-18T12:34:18.572Z,-1.31
2022-11-18T12:36:45.179Z,-1.32
2022-11-18T12:39:30.077Z,-1.32
2022-11-18T12:42:15.506Z,-1.32
2022-11-18T12:44:42.547Z,-1.30
2022-11-18T12:47:09.802Z,-1.29
2022-11-18T12:49:36.430Z,-1.30
2022-11-18T12:52:03.732Z,-1.30
2022-11-18T12:54:34.258Z,-1.33
2022-11-18T12:57:02.226Z,-1.28
2022-11-18T12:59:33.114Z,-1.28
2022-11-18T13:02:23.456Z,-1.27
2022-11-18T13:05:09.441Z,-1.30
2022-11-18T13:08:04.586Z,-1.26
2022-11-18T13:10:32.289Z,-1.30
2022-11-18T13:12:59.186Z,-1.32
2022-11-18T13:15:44.939Z,-1.31
2022-11-18T13:18:13.575Z,-1.28
2022-11-18T13:20:40.675Z,-1.26
2022-11-18T13:23:29.142Z,-1.26
2022-11-18T13:26:02.429Z,-1.24
2022-11-18T13:28:39.240Z,-1.27
2022-11-18T13:31:15.058Z,-1.21
2022-11-18T13:33:41.726Z,-1.21
2022-11-18T13:36:24.465Z,-1.22
2022-11-18T16:27:42.608Z,-1.94
2022-11-18T16:30:29.507Z,-1.80
2022-11-18T16:32:56.366Z,-1.76
2022-11-18T16:35:23.161Z,-1.74
2022-11-18T16:37:49.913Z,-1.72
2022-11-18T16:40:17.148Z,-1.70
2022-11-18T16:42:43.927Z,-1.66
2022-11-18T16:45:10.966Z,-1.64
2022-11-18T16:47:38.490Z,-1.62
2022-11-18T16:50:05.506Z,-1.61
2022-11-18T16:52:32.228Z,-1.64
2022-11-18T16:54:58.964Z,-1.58
2022-11-18T16:57:25.756Z,-1.57
2022-11-18T16:59:52.493Z,-1.54
2022-11-18T17:02:24.975Z,-1.51
2022-11-18T17:04:51.748Z,-1.49
2022-11-18T17:07:18.523Z,-1.46
2022-11-18T17:09:45.410Z,-1.44
2022-11-18T17:12:12.375Z,-1.42
2022-11-18T17:14:40.281Z,-1.42
2022-11-18T17:17:07.224Z,-1.42
2022-11-18T17:19:34.026Z,-1.42
2022-11-18T17:22:00.717Z,-1.44
2022-11-18T17:24:27.468Z,-1.43
2022-11-18T17:26:54.526Z,-1.44
2022-11-18T17:29:21.628Z,-1.45
2022-11-18T17:31:48.760Z,-1.47
2022-11-18T17:34:15.847Z,-1.53
2022-11-18T17:36:43.253Z,-1.50
2022-11-18T17:39:11.021Z,-1.51
2022-11-18T17:41:56.802Z,-1.51
2022-11-18T17:44:24.561Z,-1.53
2022-11-18T17:46:51.609Z,-1.53
2022-11-18T17:49:18.532Z,-1.53
2022-11-18T17:51:48.249Z,-1.51
2022-11-18T17:54:14.996Z,-1.51
2022-11-18T17:56:41.886Z,-1.50
2022-11-18T17:59:08.607Z,-1.50
2022-11-18T18:01:36.166Z,-1.50
2022-11-18T18:04:03.112Z,-1.50
2022-11-18T18:06:29.784Z,-1.49
2022-11-18T18:08:57.431Z,-1.48
2022-11-18T18:11:24.414Z,-1.49
2022-11-18T18:14:09.899Z,-1.49
2022-11-18T18:16:36.762Z,-1.49
2022-11-18T18:19:04.739Z,-1.49
2022-11-18T18:21:31.787Z,-1.51
2022-11-18T18:23:58.620Z,-1.56
2022-11-18T18:26:29.925Z,-1.60
2022-11-18T18:28:59.412Z,-1.72
2022-11-18T18:31:26.738Z,-1.68
2022-11-18T18:33:53.469Z,-1.69
2022-11-18T18:36:21.003Z,-1.70
2022-11-18T18:38:47.843Z,-1.69
2022-11-18T18:41:15.370Z,-1.71
2022-11-18T18:43:42.105Z,-1.72
2022-11-18T18:46:36.226Z,-1.74
2022-11-18T18:49:03.075Z,-1.75
2022-11-18T18:51:30.778Z,-1.82
2022-11-18T18:53:58.420Z,-1.74
2022-11-18T18:56:25.467Z,-1.75
2022-11-18T18:58:52.151Z,-1.76
2022-11-18T19:01:19.402Z,-1.75
2022-11-18T19:03:46.308Z,-1.75
2022-11-18T19:09:03.525Z,-1.71
2022-11-18T19:11:49.123Z,-1.71
2022-11-18T19:14:18.124Z,-1.71
2022-11-18T19:16:45.460Z,-1.71
2022-11-18T19:19:17.020Z,-1.73
2022-11-18T19:21:45.258Z,-1.74
2022-11-18T19:24:34.767Z,-1.74
2022-11-18T19:26:59.094Z,-1.77
2022-11-18T19:29:28.305Z,-1.79
2022-11-18T19:31:55.431Z,-1.82
2022-11-18T19:34:22.190Z,-1.84
2022-11-18T19:36:49.037Z,-1.84
2022-11-18T19:39:16.047Z,-1.85
2022-11-18T19:41:43.021Z,-1.86
2022-11-18T19:44:09.867Z,-1.87
2022-11-18T19:46:37.572Z,-1.87
2022-11-18T19:49:04.285Z,-1.88
2022-11-18T19:51:31.013Z,-1.89
2022-11-18T19:53:59.776Z,-1.90
2022-11-18T19:56:26.800Z,-1.89
2022-11-18T19:58:54.894Z,-1.91
2022-11-18T20:01:25.708Z,-1.91
2022-11-18T20:03:53.681Z,-1.94
2022-11-18T20:06:22.606Z,-1.95
2022-11-18T20:08:49.473Z,-1.96
2022-11-18T20:11:16.584Z,-1.96
2022-11-18T20:13:45.301Z,-1.96
2022-11-18T20:16:12.816Z,-1.96
2022-11-18T20:18:40.353Z,-1.96
2022-11-18T20:21:09.333Z,-1.94
2022-11-18T20:23:36.564Z,-1.93
2022-11-18T20:26:09.874Z,-1.92
2022-11-18T20:28:38.669Z,-1.91
2022-11-18T20:31:06.306Z,-1.89
2022-11-18T20:33:37.029Z,-1.88
2022-11-18T20:36:11.560Z,-1.86
2022-11-18T20:38:38.753Z,-1.85
2022-11-18T20:41:07.011Z,-1.83
2022-11-18T20:43:34.215Z,-1.84
2022-11-18T20:46:01.135Z,-1.79
2022-11-18T20:48:27.976Z,-1.77
2022-11-18T20:50:54.659Z,-1.76
2022-11-18T20:53:25.392Z,-1.77
2022-11-18T20:55:52.159Z,-1.74
2022-11-18T20:58:18.970Z,-1.73
2022-11-18T21:00:46.351Z,-1.73
2022-11-18T21:03:13.137Z,-1.71
2022-11-18T21:05:40.707Z,-1.69
2022-11-18T21:08:10.593Z,-1.69
2022-11-18T21:10:37.405Z,-1.69
2022-11-18T21:13:22.934Z,-1.69
2022-11-18T21:15:49.715Z,-1.69
2022-11-18T21:18:16.420Z,-1.69
2022-11-18T21:21:01.585Z,-1.70
2022-11-18T21:23:28.339Z,-1.75
2022-11-18T21:25:55.214Z,-1.71
2022-11-18T21:28:21.819Z,-1.70
2022-11-18T21:30:48.708Z,-1.70
2022-11-18T21:33:15.352Z,-1.70
2022-11-18T21:35:42.102Z,-1.69
2022-11-18T21:38:08.928Z,-1.73
2022-11-18T21:40:35.585Z,-1.69
2022-11-18T21:43:02.406Z,-1.68
2022-11-18T21:45:29.059Z,-1.67
2022-11-18T21:47:55.924Z,-1.66
2022-11-18T21:50:22.626Z,-1.66
2022-11-18T21:52:49.679Z,-1.66
2022-11-18T21:55:16.731Z,-1.65
2022-11-18T21:57:43.492Z,-1.64
2022-11-18T22:00:11.053Z,-1.63
2022-11-18T22:02:38.506Z,-1.62
2022-11-18T22:05:07.061Z,-1.61
2022-11-18T22:07:34.157Z,-1.60
2022-11-18T22:10:00.952Z,-1.59
2022-11-18T22:12:27.713Z,-1.59
2022-11-18T22:14:54.428Z,-1.55
2022-11-18T22:17:21.104Z,-1.53
2022-11-18T22:19:47.811Z,-1.54
2022-11-18T22:22:14.647Z,-1.53
2022-11-18T22:24:41.414Z,-1.54
2022-11-18T22:27:11.554Z,-1.54
2022-11-18T22:29:38.520Z,-1.53
2022-11-18T22:32:05.296Z,-1.53
2022-11-18T22:34:32.021Z,-1.52
2022-11-18T22:36:58.709Z,-1.52
2022-11-18T22:39:25.538Z,-1.52
2022-11-18T22:42:11.117Z,-1.51
2022-11-18T22:44:37.855Z,-1.53
2022-11-18T22:47:04.602Z,-1.52
2022-11-18T22:49:31.371Z,-1.52
2022-11-18T22:51:58.285Z,-1.51
2022-11-18T22:54:40.712Z,-1.51
2022-11-18T22:57:07.890Z,-1.51
2022-11-18T22:59:34.625Z,-1.51
2022-11-18T23:02:01.933Z,-1.51
2022-11-18T23:04:28.712Z,-1.50
2022-11-18T23:06:55.460Z,-1.50
2022-11-18T23:09:22.403Z,-1.50
2022-11-18T23:12:08.107Z,-1.50
2022-11-18T23:14:34.855Z,-1.50
2022-11-18T23:17:01.586Z,-1.49
2022-11-18T23:19:28.312Z,-1.50
2022-11-18T23:21:55.043Z,-1.51
2022-11-18T23:24:22.039Z,-1.50
2022-11-18T23:26:48.812Z,-1.50
2022-11-18T23:29:15.760Z,-1.52
2022-11-18T23:31:43.713Z,-1.49
2022-11-18T23:34:11.982Z,-1.49
2022-11-18T23:36:39.004Z,-1.49
2022-11-18T23:39:06.053Z,-1.47
2022-11-18T23:41:32.722Z,-1.46
2022-11-18T23:43:59.584Z,-1.44
2022-11-18T23:46:27.654Z,-1.43
2022-11-18T23:48:54.372Z,-1.40
2022-11-18T23:51:22.045Z,-1.38
2022-11-18T23:53:55.019Z,-1.37
2022-11-18T23:56:23.175Z,-1.33
2022-11-18T23:58:51.295Z,-1.30
